sensor_id;sensor_type;location;lat;lon;timestamp;P1;durP1;ratioP1;P2;durP2;ratioP2
78458;SDS011;67753;42.684;23.330;2023-06-14T00:00:35;7.80;;;6.80;;
78458;SDS011;67753;42.684;23.330;2023-06-14T00:02:39;6.20;;;5.57;;
78458;SDS011;67753;42.684;23.330;2023-06-14T00:04:42;7.13;;;6.43;;
78458;SDS011;67753;42.684;23.330;2023-06-14T00:06:45;7.25;;;6.65;;
78458;SDS011;67753;42.684;23.330;2023-06-14T00:08:48;7.18;;;6.53;;
78458;SDS011;67753;42.684;23.330;2023-06-14T00:10:51;7.90;;;6.63;;
78458;SDS011;67753;42.684;23.330;2023-06-14T00:12:52;7.82;;;6.60;;
78458;SDS011;67753;42.684;23.330;2023-06-14T00:14:55;7.28;;;6.57;;
78458;SDS011;67753;42.684;23.330;2023-06-14T00:16:57;6.80;;;6.15;;
78458;SDS011;67753;42.684;23.330;2023-06-14T00:18:59;6.45;;;5.85;;
78458;SDS011;67753;42.684;23.330;2023-06-14T00:21:03;6.43;;;5.80;;
78458;SDS011;67753;42.684;23.330;2023-06-14T00:23:07;6.88;;;6.22;;
78458;SDS011;67753;42.684;23.330;2023-06-14T00:25:09;7.30;;;6.10;;
78458;SDS011;67753;42.684;23.330;2023-06-14T00:27:12;6.65;;;6.00;;
78458;SDS011;67753;42.684;23.330;2023-06-14T00:29:13;7.03;;;6.30;;
78458;SDS011;67753;42.684;23.330;2023-06-14T00:31:15;6.43;;;5.93;;
78458;SDS011;67753;42.684;23.330;2023-06-14T00:33:17;6.95;;;6.35;;
78458;SDS011;67753;42.684;23.330;2023-06-14T00:35:19;6.40;;;5.80;;
78458;SDS011;67753;42.684;23.330;2023-06-14T00:37:21;6.55;;;5.95;;
78458;SDS011;67753;42.684;23.330;2023-06-14T00:39:25;6.28;;;5.68;;
78458;SDS011;67753;42.684;23.330;2023-06-14T00:41:27;6.85;;;6.25;;
78458;SDS011;67753;42.684;23.330;2023-06-14T00:43:28;6.57;;;5.97;;
78458;SDS011;67753;42.684;23.330;2023-06-14T00:45:30;7.38;;;6.20;;
78458;SDS011;67753;42.684;23.330;2023-06-14T00:47:36;6.47;;;5.90;;
78458;SDS011;67753;42.684;23.330;2023-06-14T00:49:38;8.35;;;6.70;;
78458;SDS011;67753;42.684;23.330;2023-06-14T00:51:41;6.00;;;5.50;;
78458;SDS011;67753;42.684;23.330;2023-06-14T00:53:43;7.05;;;5.43;;
78458;SDS011;67753;42.684;23.330;2023-06-14T00:55:48;6.50;;;6.00;;
78458;SDS011;67753;42.684;23.330;2023-06-14T00:57:50;7.70;;;5.07;;
78458;SDS011;67753;42.684;23.330;2023-06-14T00:59:52;6.82;;;6.18;;
78458;SDS011;67753;42.684;23.330;2023-06-14T01:01:55;6.40;;;5.90;;
78458;SDS011;67753;42.684;23.330;2023-06-14T01:03:57;5.60;;;5.10;;
78458;SDS011;67753;42.684;23.330;2023-06-14T01:05:59;6.93;;;5.93;;
78458;SDS011;67753;42.684;23.330;2023-06-14T01:08:11;10.95;;;6.07;;
78458;SDS011;67753;42.684;23.330;2023-06-14T01:10:24;6.65;;;6.15;;
78458;SDS011;67753;42.684;23.330;2023-06-14T01:12:37;6.53;;;5.93;;
78458;SDS011;67753;42.684;23.330;2023-06-14T01:14:46;6.53;;;5.68;;
78458;SDS011;67753;42.684;23.330;2023-06-14T01:16:49;6.28;;;5.82;;
78458;SDS011;67753;42.684;23.330;2023-06-14T01:18:53;6.38;;;5.78;;
78458;SDS011;67753;42.684;23.330;2023-06-14T01:20:56;5.40;;;4.95;;
78458;SDS011;67753;42.684;23.330;2023-06-14T01:22:59;6.25;;;5.53;;
78458;SDS011;67753;42.684;23.330;2023-06-14T01:25:01;6.75;;;6.03;;
78458;SDS011;67753;42.684;23.330;2023-06-14T01:27:03;8.68;;;6.07;;
78458;SDS011;67753;42.684;23.330;2023-06-14T01:29:06;5.88;;;5.47;;
78458;SDS011;67753;42.684;23.330;2023-06-14T01:31:08;6.82;;;6.25;;
78458;SDS011;67753;42.684;23.330;2023-06-14T01:33:13;7.28;;;5.75;;
78458;SDS011;67753;42.684;23.330;2023-06-14T01:35:15;6.20;;;5.70;;
78458;SDS011;67753;42.684;23.330;2023-06-14T01:37:18;6.05;;;5.55;;
78458;SDS011;67753;42.684;23.330;2023-06-14T01:39:22;8.30;;;6.35;;
78458;SDS011;67753;42.684;23.330;2023-06-14T01:41:25;6.88;;;6.18;;
78458;SDS011;67753;42.684;23.330;2023-06-14T01:43:29;5.97;;;5.53;;
78458;SDS011;67753;42.684;23.330;2023-06-14T01:45:33;6.60;;;5.97;;
78458;SDS011;67753;42.684;23.330;2023-06-14T01:47:35;7.00;;;6.32;;
78458;SDS011;67753;42.684;23.330;2023-06-14T01:49:38;7.25;;;6.55;;
78458;SDS011;67753;42.684;23.330;2023-06-14T01:51:40;6.80;;;6.20;;
78458;SDS011;67753;42.684;23.330;2023-06-14T01:53:42;7.50;;;6.80;;
78458;SDS011;67753;42.684;23.330;2023-06-14T01:55:45;7.35;;;6.75;;
78458;SDS011;67753;42.684;23.330;2023-06-14T01:57:48;7.10;;;6.40;;
78458;SDS011;67753;42.684;23.330;2023-06-14T01:59:50;6.53;;;6.03;;
78458;SDS011;67753;42.684;23.330;2023-06-14T02:01:52;7.03;;;6.53;;
78458;SDS011;67753;42.684;23.330;2023-06-14T02:03:54;7.88;;;7.18;;
78458;SDS011;67753;42.684;23.330;2023-06-14T02:05:56;6.97;;;6.38;;
78458;SDS011;67753;42.684;23.330;2023-06-14T02:07:59;6.75;;;6.15;;
78458;SDS011;67753;42.684;23.330;2023-06-14T02:10:01;7.60;;;6.18;;
78458;SDS011;67753;42.684;23.330;2023-06-14T02:12:06;7.18;;;6.60;;
78458;SDS011;67753;42.684;23.330;2023-06-14T02:14:08;7.30;;;6.60;;
78458;SDS011;67753;42.684;23.330;2023-06-14T02:16:11;7.75;;;7.15;;
78458;SDS011;67753;42.684;23.330;2023-06-14T02:18:14;7.60;;;6.90;;
78458;SDS011;67753;42.684;23.330;2023-06-14T02:20:16;6.72;;;6.13;;
78458;SDS011;67753;42.684;23.330;2023-06-14T02:22:18;7.50;;;6.90;;
78458;SDS011;67753;42.684;23.330;2023-06-14T02:24:22;7.97;;;7.30;;
78458;SDS011;67753;42.684;23.330;2023-06-14T02:26:24;7.43;;;6.82;;
78458;SDS011;67753;42.684;23.330;2023-06-14T02:28:30;6.70;;;6.03;;
78458;SDS011;67753;42.684;23.330;2023-06-14T02:30:32;7.78;;;7.07;;
78458;SDS011;67753;42.684;23.330;2023-06-14T02:32:34;6.90;;;6.40;;
78458;SDS011;67753;42.684;23.330;2023-06-14T02:34:36;7.55;;;6.95;;
78458;SDS011;67753;42.684;23.330;2023-06-14T02:36:42;7.03;;;6.47;;
78458;SDS011;67753;42.684;23.330;2023-06-14T02:38:45;7.40;;;6.70;;
78458;SDS011;67753;42.684;23.330;2023-06-14T02:40:47;6.72;;;6.22;;
78458;SDS011;67753;42.684;23.330;2023-06-14T02:42:48;7.40;;;6.70;;
78458;SDS011;67753;42.684;23.330;2023-06-14T02:44:53;9.40;;;7.53;;
78458;SDS011;67753;42.684;23.330;2023-06-14T02:46:55;7.88;;;7.18;;
78458;SDS011;67753;42.684;23.330;2023-06-14T02:48:59;7.15;;;6.53;;
78458;SDS011;67753;42.684;23.330;2023-06-14T02:51:00;7.00;;;6.45;;
78458;SDS011;67753;42.684;23.330;2023-06-14T02:53:02;7.47;;;6.57;;
78458;SDS011;67753;42.684;23.330;2023-06-14T02:55:04;6.53;;;5.93;;
78458;SDS011;67753;42.684;23.330;2023-06-14T02:57:08;6.93;;;6.32;;
78458;SDS011;67753;42.684;23.330;2023-06-14T02:59:10;7.22;;;6.50;;
78458;SDS011;67753;42.684;23.330;2023-06-14T03:01:15;7.57;;;6.93;;
78458;SDS011;67753;42.684;23.330;2023-06-14T03:03:18;6.85;;;6.32;;
78458;SDS011;67753;42.684;23.330;2023-06-14T03:05:21;7.93;;;6.70;;
78458;SDS011;67753;42.684;23.330;2023-06-14T03:07:23;7.85;;;7.05;;
78458;SDS011;67753;42.684;23.330;2023-06-14T03:09:27;8.02;;;7.30;;
78458;SDS011;67753;42.684;23.330;2023-06-14T03:11:30;7.15;;;6.55;;
78458;SDS011;67753;42.684;23.330;2023-06-14T03:13:32;7.72;;;6.97;;
78458;SDS011;67753;42.684;23.330;2023-06-14T03:15:34;7.45;;;6.75;;
78458;SDS011;67753;42.684;23.330;2023-06-14T03:17:41;7.60;;;7.00;;
78458;SDS011;67753;42.684;23.330;2023-06-14T03:19:45;8.18;;;7.47;;
78458;SDS011;67753;42.684;23.330;2023-06-14T03:21:47;7.68;;;6.97;;
78458;SDS011;67753;42.684;23.330;2023-06-14T03:23:49;7.18;;;6.57;;
78458;SDS011;67753;42.684;23.330;2023-06-14T03:25:51;7.93;;;7.32;;
78458;SDS011;67753;42.684;23.330;2023-06-14T03:27:54;7.32;;;6.72;;
78458;SDS011;67753;42.684;23.330;2023-06-14T03:29:56;7.65;;;7.05;;
78458;SDS011;67753;42.684;23.330;2023-06-14T03:31:58;8.13;;;7.43;;
78458;SDS011;67753;42.684;23.330;2023-06-14T03:34:02;8.73;;;7.82;;
78458;SDS011;67753;42.684;23.330;2023-06-14T03:36:04;9.55;;;8.65;;
78458;SDS011;67753;42.684;23.330;2023-06-14T03:38:08;9.48;;;8.68;;
78458;SDS011;67753;42.684;23.330;2023-06-14T03:40:11;8.88;;;8.05;;
78458;SDS011;67753;42.684;23.330;2023-06-14T03:42:13;8.50;;;7.78;;
78458;SDS011;67753;42.684;23.330;2023-06-14T03:44:15;8.70;;;7.60;;
78458;SDS011;67753;42.684;23.330;2023-06-14T03:46:18;8.52;;;6.97;;
78458;SDS011;67753;42.684;23.330;2023-06-14T03:48:20;8.00;;;7.32;;
78458;SDS011;67753;42.684;23.330;2023-06-14T03:50:23;8.27;;;7.45;;
78458;SDS011;67753;42.684;23.330;2023-06-14T03:52:25;8.52;;;7.53;;
78458;SDS011;67753;42.684;23.330;2023-06-14T03:54:27;8.50;;;7.80;;
78458;SDS011;67753;42.684;23.330;2023-06-14T03:56:29;8.00;;;7.30;;
78458;SDS011;67753;42.684;23.330;2023-06-14T03:58:31;9.88;;;7.50;;
78458;SDS011;67753;42.684;23.330;2023-06-14T04:00:33;10.65;;;8.43;;
78458;SDS011;67753;42.684;23.330;2023-06-14T04:02:36;8.25;;;7.55;;
78458;SDS011;67753;42.684;23.330;2023-06-14T04:04:37;8.73;;;7.90;;
78458;SDS011;67753;42.684;23.330;2023-06-14T04:06:45;8.75;;;7.30;;
78458;SDS011;67753;42.684;23.330;2023-06-14T04:08:48;8.27;;;7.53;;
78458;SDS011;67753;42.684;23.330;2023-06-14T04:10:50;7.75;;;7.15;;
78458;SDS011;67753;42.684;23.330;2023-06-14T04:12:53;8.63;;;7.82;;
78458;SDS011;67753;42.684;23.330;2023-06-14T04:14:55;9.13;;;8.00;;
78458;SDS011;67753;42.684;23.330;2023-06-14T04:16:58;9.00;;;8.07;;
78458;SDS011;67753;42.684;23.330;2023-06-14T04:19:00;8.55;;;7.72;;
78458;SDS011;67753;42.684;23.330;2023-06-14T04:21:02;9.93;;;7.35;;
78458;SDS011;67753;42.684;23.330;2023-06-14T04:23:13;8.43;;;7.55;;
78458;SDS011;67753;42.684;23.330;2023-06-14T04:25:18;9.05;;;8.15;;
78458;SDS011;67753;42.684;23.330;2023-06-14T04:27:20;9.23;;;8.32;;
78458;SDS011;67753;42.684;23.330;2023-06-14T04:29:25;9.77;;;8.88;;
78458;SDS011;67753;42.684;23.330;2023-06-14T04:31:29;10.27;;;9.02;;
78458;SDS011;67753;42.684;23.330;2023-06-14T04:33:34;9.88;;;8.98;;
78458;SDS011;67753;42.684;23.330;2023-06-14T04:35:43;12.52;;;8.65;;
78458;SDS011;67753;42.684;23.330;2023-06-14T04:37:47;9.80;;;8.80;;
78458;SDS011;67753;42.684;23.330;2023-06-14T04:39:50;9.98;;;9.10;;
78458;SDS011;67753;42.684;23.330;2023-06-14T04:41:52;10.38;;;9.27;;
78458;SDS011;67753;42.684;23.330;2023-06-14T04:43:57;10.20;;;9.30;;
78458;SDS011;67753;42.684;23.330;2023-06-14T04:46:01;10.05;;;9.00;;
78458;SDS011;67753;42.684;23.330;2023-06-14T04:48:10;9.55;;;8.75;;
78458;SDS011;67753;42.684;23.330;2023-06-14T04:50:12;9.30;;;8.60;;
78458;SDS011;67753;42.684;23.330;2023-06-14T04:52:14;10.85;;;9.85;;
78458;SDS011;67753;42.684;23.330;2023-06-14T04:54:17;10.07;;;9.02;;
78458;SDS011;67753;42.684;23.330;2023-06-14T04:56:22;11.75;;;10.65;;
78458;SDS011;67753;42.684;23.330;2023-06-14T04:58:25;12.02;;;10.90;;
78458;SDS011;67753;42.684;23.330;2023-06-14T05:00:27;11.25;;;10.18;;
78458;SDS011;67753;42.684;23.330;2023-06-14T05:02:30;10.88;;;9.98;;
78458;SDS011;67753;42.684;23.330;2023-06-14T05:04:32;10.85;;;9.95;;
78458;SDS011;67753;42.684;23.330;2023-06-14T05:06:34;10.57;;;9.65;;
78458;SDS011;67753;42.684;23.330;2023-06-14T05:08:36;11.77;;;10.77;;
78458;SDS011;67753;42.684;23.330;2023-06-14T05:10:38;10.90;;;9.95;;
78458;SDS011;67753;42.684;23.330;2023-06-14T05:12:41;11.65;;;10.65;;
78458;SDS011;67753;42.684;23.330;2023-06-14T05:14:44;12.48;;;10.98;;
78458;SDS011;67753;42.684;23.330;2023-06-14T05:16:46;11.43;;;10.43;;
78458;SDS011;67753;42.684;23.330;2023-06-14T05:18:48;10.93;;;9.82;;
78458;SDS011;67753;42.684;23.330;2023-06-14T05:20:51;11.48;;;10.45;;
78458;SDS011;67753;42.684;23.330;2023-06-14T05:22:52;10.00;;;9.02;;
78458;SDS011;67753;42.684;23.330;2023-06-14T05:24:56;11.18;;;10.20;;
78458;SDS011;67753;42.684;23.330;2023-06-14T05:26:58;10.20;;;9.38;;
78458;SDS011;67753;42.684;23.330;2023-06-14T05:29:02;11.48;;;10.38;;
78458;SDS011;67753;42.684;23.330;2023-06-14T05:31:03;11.55;;;10.48;;
78458;SDS011;67753;42.684;23.330;2023-06-14T05:33:05;11.48;;;10.43;;
78458;SDS011;67753;42.684;23.330;2023-06-14T05:35:07;11.25;;;10.15;;
78458;SDS011;67753;42.684;23.330;2023-06-14T05:37:10;10.77;;;9.77;;
78458;SDS011;67753;42.684;23.330;2023-06-14T05:39:13;11.98;;;10.88;;
78458;SDS011;67753;42.684;23.330;2023-06-14T05:41:15;12.23;;;11.02;;
78458;SDS011;67753;42.684;23.330;2023-06-14T05:43:17;13.65;;;12.35;;
78458;SDS011;67753;42.684;23.330;2023-06-14T05:45:20;15.45;;;12.18;;
78458;SDS011;67753;42.684;23.330;2023-06-14T05:47:23;12.68;;;11.48;;
78458;SDS011;67753;42.684;23.330;2023-06-14T05:49:25;11.95;;;10.90;;
78458;SDS011;67753;42.684;23.330;2023-06-14T05:51:27;12.25;;;11.15;;
78458;SDS011;67753;42.684;23.330;2023-06-14T05:53:30;12.43;;;11.32;;
78458;SDS011;67753;42.684;23.330;2023-06-14T05:55:32;12.60;;;11.45;;
78458;SDS011;67753;42.684;23.330;2023-06-14T05:57:34;14.00;;;12.63;;
78458;SDS011;67753;42.684;23.330;2023-06-14T05:59:36;13.52;;;12.15;;
78458;SDS011;67753;42.684;23.330;2023-06-14T06:01:39;12.63;;;11.45;;
78458;SDS011;67753;42.684;23.330;2023-06-14T06:03:42;14.43;;;13.00;;
78458;SDS011;67753;42.684;23.330;2023-06-14T06:05:45;14.90;;;13.50;;
78458;SDS011;67753;42.684;23.330;2023-06-14T06:07:47;14.93;;;13.50;;
78458;SDS011;67753;42.684;23.330;2023-06-14T06:09:49;13.18;;;12.07;;
78458;SDS011;67753;42.684;23.330;2023-06-14T06:11:51;13.75;;;12.45;;
78458;SDS011;67753;42.684;23.330;2023-06-14T06:13:54;15.40;;;11.73;;
78458;SDS011;67753;42.684;23.330;2023-06-14T06:15:55;13.55;;;12.35;;
78458;SDS011;67753;42.684;23.330;2023-06-14T06:17:58;15.68;;;14.05;;
78458;SDS011;67753;42.684;23.330;2023-06-14T06:20:00;19.98;;;18.10;;
78458;SDS011;67753;42.684;23.330;2023-06-14T06:22:03;16.95;;;14.95;;
78458;SDS011;67753;42.684;23.330;2023-06-14T06:24:06;15.57;;;14.02;;
78458;SDS011;67753;42.684;23.330;2023-06-14T06:26:08;14.23;;;12.70;;
78458;SDS011;67753;42.684;23.330;2023-06-14T06:28:09;16.13;;;12.82;;
78458;SDS011;67753;42.684;23.330;2023-06-14T06:30:12;13.55;;;12.27;;
78458;SDS011;67753;42.684;23.330;2023-06-14T06:32:14;15.93;;;13.30;;
78458;SDS011;67753;42.684;23.330;2023-06-14T06:34:17;12.13;;;10.95;;
78458;SDS011;67753;42.684;23.330;2023-06-14T06:36:19;13.30;;;11.88;;
78458;SDS011;67753;42.684;23.330;2023-06-14T06:38:21;13.75;;;12.45;;
78458;SDS011;67753;42.684;23.330;2023-06-14T06:40:23;13.93;;;12.55;;
78458;SDS011;67753;42.684;23.330;2023-06-14T06:42:25;16.58;;;13.85;;
78458;SDS011;67753;42.684;23.330;2023-06-14T06:44:26;17.77;;;15.98;;
78458;SDS011;67753;42.684;23.330;2023-06-14T06:46:28;18.27;;;16.58;;
78458;SDS011;67753;42.684;23.330;2023-06-14T06:48:30;15.80;;;14.20;;
78458;SDS011;67753;42.684;23.330;2023-06-14T06:50:33;15.40;;;13.90;;
78458;SDS011;67753;42.684;23.330;2023-06-14T06:52:35;17.35;;;14.55;;
78458;SDS011;67753;42.684;23.330;2023-06-14T06:54:37;14.70;;;13.40;;
78458;SDS011;67753;42.684;23.330;2023-06-14T06:56:39;13.50;;;12.20;;
78458;SDS011;67753;42.684;23.330;2023-06-14T06:58:41;14.25;;;12.75;;
78458;SDS011;67753;42.684;23.330;2023-06-14T07:00:43;14.70;;;12.57;;
78458;SDS011;67753;42.684;23.330;2023-06-14T07:02:46;14.45;;;13.05;;
78458;SDS011;67753;42.684;23.330;2023-06-14T07:04:48;14.38;;;12.93;;
78458;SDS011;67753;42.684;23.330;2023-06-14T07:06:51;18.08;;;14.48;;
78458;SDS011;67753;42.684;23.330;2023-06-14T07:08:53;18.70;;;16.80;;
78458;SDS011;67753;42.684;23.330;2023-06-14T07:10:55;15.90;;;14.30;;
78458;SDS011;67753;42.684;23.330;2023-06-14T07:12:57;14.43;;;13.15;;
78458;SDS011;67753;42.684;23.330;2023-06-14T07:14:58;16.23;;;14.60;;
78458;SDS011;67753;42.684;23.330;2023-06-14T07:17:01;14.73;;;13.38;;
78458;SDS011;67753;42.684;23.330;2023-06-14T07:19:03;13.80;;;12.60;;
78458;SDS011;67753;42.684;23.330;2023-06-14T07:21:05;14.93;;;13.63;;
78458;SDS011;67753;42.684;23.330;2023-06-14T07:23:08;15.52;;;14.02;;
78458;SDS011;67753;42.684;23.330;2023-06-14T07:25:11;17.55;;;15.75;;
78458;SDS011;67753;42.684;23.330;2023-06-14T07:27:14;15.07;;;13.55;;
78458;SDS011;67753;42.684;23.330;2023-06-14T07:29:16;16.33;;;14.77;;
78458;SDS011;67753;42.684;23.330;2023-06-14T07:31:18;15.77;;;14.38;;
78458;SDS011;67753;42.684;23.330;2023-06-14T07:33:19;14.75;;;13.52;;
78458;SDS011;67753;42.684;23.330;2023-06-14T07:35:21;14.02;;;12.82;;
78458;SDS011;67753;42.684;23.330;2023-06-14T07:37:23;14.57;;;13.18;;
78458;SDS011;67753;42.684;23.330;2023-06-14T07:39:26;16.95;;;15.55;;
78458;SDS011;67753;42.684;23.330;2023-06-14T07:41:27;17.50;;;15.75;;
78458;SDS011;67753;42.684;23.330;2023-06-14T07:43:29;16.90;;;15.32;;
78458;SDS011;67753;42.684;23.330;2023-06-14T07:45:31;17.02;;;15.50;;
78458;SDS011;67753;42.684;23.330;2023-06-14T07:47:33;16.55;;;15.15;;
78458;SDS011;67753;42.684;23.330;2023-06-14T07:49:35;17.23;;;15.73;;
78458;SDS011;67753;42.684;23.330;2023-06-14T07:51:37;14.75;;;13.30;;
78458;SDS011;67753;42.684;23.330;2023-06-14T07:53:39;16.48;;;14.77;;
78458;SDS011;67753;42.684;23.330;2023-06-14T07:55:43;14.07;;;12.68;;
78458;SDS011;67753;42.684;23.330;2023-06-14T07:57:47;16.40;;;14.90;;
78458;SDS011;67753;42.684;23.330;2023-06-14T07:59:49;15.32;;;13.75;;
78458;SDS011;67753;42.684;23.330;2023-06-14T08:01:51;15.55;;;14.13;;
78458;SDS011;67753;42.684;23.330;2023-06-14T08:03:53;14.73;;;13.43;;
78458;SDS011;67753;42.684;23.330;2023-06-14T08:05:55;14.57;;;13.15;;
78458;SDS011;67753;42.684;23.330;2023-06-14T08:07:57;13.38;;;12.07;;
78458;SDS011;67753;42.684;23.330;2023-06-14T08:09:58;12.20;;;10.98;;
78458;SDS011;67753;42.684;23.330;2023-06-14T08:12:02;12.35;;;11.15;;
78458;SDS011;67753;42.684;23.330;2023-06-14T08:14:04;12.20;;;10.90;;
78458;SDS011;67753;42.684;23.330;2023-06-14T08:16:07;12.23;;;11.18;;
78458;SDS011;67753;42.684;23.330;2023-06-14T08:18:08;12.15;;;11.07;;
78458;SDS011;67753;42.684;23.330;2023-06-14T08:20:10;11.65;;;10.60;;
78458;SDS011;67753;42.684;23.330;2023-06-14T08:22:13;12.75;;;11.55;;
78458;SDS011;67753;42.684;23.330;2023-06-14T08:24:16;12.90;;;11.68;;
78458;SDS011;67753;42.684;23.330;2023-06-14T08:26:19;13.07;;;12.05;;
78458;SDS011;67753;42.684;23.330;2023-06-14T08:28:22;13.13;;;11.80;;
78458;SDS011;67753;42.684;23.330;2023-06-14T08:30:25;13.57;;;12.18;;
78458;SDS011;67753;42.684;23.330;2023-06-14T08:32:27;13.80;;;12.60;;
78458;SDS011;67753;42.684;23.330;2023-06-14T08:34:29;13.75;;;12.55;;
78458;SDS011;67753;42.684;23.330;2023-06-14T08:36:30;15.52;;;12.95;;
78458;SDS011;67753;42.684;23.330;2023-06-14T08:38:32;13.57;;;12.30;;
78458;SDS011;67753;42.684;23.330;2023-06-14T08:40:35;12.82;;;11.73;;
78458;SDS011;67753;42.684;23.330;2023-06-14T08:42:38;12.32;;;11.20;;
78458;SDS011;67753;42.684;23.330;2023-06-14T08:44:42;13.55;;;12.32;;
78458;SDS011;67753;42.684;23.330;2023-06-14T08:46:44;14.15;;;11.85;;
78458;SDS011;67753;42.684;23.330;2023-06-14T08:48:49;13.77;;;12.40;;
78458;SDS011;67753;42.684;23.330;2023-06-14T08:50:52;13.15;;;11.85;;
78458;SDS011;67753;42.684;23.330;2023-06-14T08:53:02;12.82;;;11.68;;
78458;SDS011;67753;42.684;23.330;2023-06-14T08:55:05;12.48;;;11.23;;
78458;SDS011;67753;42.684;23.330;2023-06-14T08:57:09;13.70;;;12.23;;
78458;SDS011;67753;42.684;23.330;2023-06-14T08:59:15;14.02;;;12.65;;
78458;SDS011;67753;42.684;23.330;2023-06-14T09:01:19;12.50;;;11.18;;
78458;SDS011;67753;42.684;23.330;2023-06-14T09:03:21;14.45;;;13.00;;
78458;SDS011;67753;42.684;23.330;2023-06-14T09:05:29;11.93;;;10.85;;
78458;SDS011;67753;42.684;23.330;2023-06-14T09:07:31;14.70;;;13.38;;
78458;SDS011;67753;42.684;23.330;2023-06-14T09:09:33;10.57;;;9.77;;
78458;SDS011;67753;42.684;23.330;2023-06-14T09:11:41;10.50;;;9.50;;
78458;SDS011;67753;42.684;23.330;2023-06-14T09:13:43;11.52;;;10.52;;
78458;SDS011;67753;42.684;23.330;2023-06-14T09:15:45;12.88;;;11.88;;
78458;SDS011;67753;42.684;23.330;2023-06-14T09:17:49;12.73;;;11.55;;
78458;SDS011;67753;42.684;23.330;2023-06-14T09:19:51;13.48;;;12.25;;
78458;SDS011;67753;42.684;23.330;2023-06-14T09:21:56;13.13;;;12.02;;
78458;SDS011;67753;42.684;23.330;2023-06-14T09:23:58;11.43;;;10.50;;
78458;SDS011;67753;42.684;23.330;2023-06-14T09:26:00;12.20;;;11.10;;
78458;SDS011;67753;42.684;23.330;2023-06-14T09:28:02;11.73;;;10.73;;
78458;SDS011;67753;42.684;23.330;2023-06-14T09:30:08;11.73;;;10.63;;
78458;SDS011;67753;42.684;23.330;2023-06-14T09:32:11;11.98;;;10.88;;
78458;SDS011;67753;42.684;23.330;2023-06-14T09:34:14;10.93;;;10.02;;
78458;SDS011;67753;42.684;23.330;2023-06-14T09:36:18;12.02;;;11.02;;
78458;SDS011;67753;42.684;23.330;2023-06-14T09:38:23;11.88;;;10.98;;
78458;SDS011;67753;42.684;23.330;2023-06-14T09:40:26;11.15;;;10.23;;
78458;SDS011;67753;42.684;23.330;2023-06-14T09:42:28;11.73;;;10.80;;
78458;SDS011;67753;42.684;23.330;2023-06-14T09:44:29;12.02;;;10.88;;
78458;SDS011;67753;42.684;23.330;2023-06-14T09:46:32;11.43;;;10.43;;
78458;SDS011;67753;42.684;23.330;2023-06-14T09:48:34;11.40;;;10.40;;
78458;SDS011;67753;42.684;23.330;2023-06-14T09:50:38;13.18;;;11.98;;
78458;SDS011;67753;42.684;23.330;2023-06-14T09:52:40;12.80;;;11.45;;
78458;SDS011;67753;42.684;23.330;2023-06-14T09:54:46;11.88;;;10.82;;
78458;SDS011;67753;42.684;23.330;2023-06-14T09:56:49;11.77;;;10.68;;
78458;SDS011;67753;42.684;23.330;2023-06-14T09:58:54;12.05;;;11.13;;
78458;SDS011;67753;42.684;23.330;2023-06-14T10:00:56;11.18;;;10.18;;
78458;SDS011;67753;42.684;23.330;2023-06-14T10:03:03;11.38;;;10.25;;
78458;SDS011;67753;42.684;23.330;2023-06-14T10:05:11;10.55;;;9.55;;
78458;SDS011;67753;42.684;23.330;2023-06-14T10:07:19;10.13;;;9.23;;
78458;SDS011;67753;42.684;23.330;2023-06-14T10:09:22;10.98;;;9.98;;
78458;SDS011;67753;42.684;23.330;2023-06-14T10:11:24;11.32;;;10.35;;
78458;SDS011;67753;42.684;23.330;2023-06-14T10:13:27;10.40;;;8.93;;
78458;SDS011;67753;42.684;23.330;2023-06-14T10:15:35;10.35;;;9.38;;
78458;SDS011;67753;42.684;23.330;2023-06-14T10:17:43;10.55;;;9.30;;
78458;SDS011;67753;42.684;23.330;2023-06-14T10:19:50;8.95;;;8.25;;
78458;SDS011;67753;42.684;23.330;2023-06-14T10:21:57;9.88;;;8.98;;
78458;SDS011;67753;42.684;23.330;2023-06-14T10:24:04;11.23;;;10.18;;
78458;SDS011;67753;42.684;23.330;2023-06-14T10:26:09;10.30;;;9.52;;
78458;SDS011;67753;42.684;23.330;2023-06-14T10:28:20;10.68;;;9.77;;
78458;SDS011;67753;42.684;23.330;2023-06-14T10:30:25;9.65;;;8.68;;
78458;SDS011;67753;42.684;23.330;2023-06-14T10:32:27;10.15;;;9.35;;
78458;SDS011;67753;42.684;23.330;2023-06-14T10:34:29;11.40;;;10.45;;
78458;SDS011;67753;42.684;23.330;2023-06-14T10:36:32;10.15;;;9.20;;
78458;SDS011;67753;42.684;23.330;2023-06-14T10:38:36;11.43;;;10.32;;
78458;SDS011;67753;42.684;23.330;2023-06-14T10:40:40;10.63;;;9.73;;
78458;SDS011;67753;42.684;23.330;2023-06-14T10:42:42;10.55;;;9.60;;
78458;SDS011;67753;42.684;23.330;2023-06-14T10:44:53;10.68;;;9.60;;
78458;SDS011;67753;42.684;23.330;2023-06-14T10:46:57;10.80;;;9.63;;
78458;SDS011;67753;42.684;23.330;2023-06-14T10:49:00;14.07;;;9.05;;
78458;SDS011;67753;42.684;23.330;2023-06-14T10:51:03;11.27;;;9.93;;
78458;SDS011;67753;42.684;23.330;2023-06-14T10:55:25;11.43;;;10.30;;
78458;SDS011;67753;42.684;23.330;2023-06-14T10:57:30;10.48;;;9.38;;
78458;SDS011;67753;42.684;23.330;2023-06-14T10:59:32;9.93;;;9.05;;
78458;SDS011;67753;42.684;23.330;2023-06-14T11:01:36;10.27;;;9.38;;
78458;SDS011;67753;42.684;23.330;2023-06-14T11:03:43;9.82;;;9.00;;
78458;SDS011;67753;42.684;23.330;2023-06-14T11:05:54;13.45;;;10.15;;
78458;SDS011;67753;42.684;23.330;2023-06-14T11:08:15;12.63;;;11.65;;
78458;SDS011;67753;42.684;23.330;2023-06-14T11:10:31;9.82;;;8.95;;
78458;SDS011;67753;42.684;23.330;2023-06-14T11:12:42;12.95;;;11.82;;
78458;SDS011;67753;42.684;23.330;2023-06-14T11:14:48;11.68;;;10.77;;
78458;SDS011;67753;42.684;23.330;2023-06-14T11:16:50;11.73;;;10.73;;
78458;SDS011;67753;42.684;23.330;2023-06-14T11:18:52;11.60;;;10.50;;
78458;SDS011;67753;42.684;23.330;2023-06-14T11:20:54;10.95;;;9.95;;
78458;SDS011;67753;42.684;23.330;2023-06-14T11:22:56;10.82;;;9.82;;
78458;SDS011;67753;42.684;23.330;2023-06-14T11:25:01;10.60;;;9.68;;
78458;SDS011;67753;42.684;23.330;2023-06-14T11:27:04;9.65;;;8.85;;
78458;SDS011;67753;42.684;23.330;2023-06-14T11:29:10;9.30;;;8.48;;
78458;SDS011;67753;42.684;23.330;2023-06-14T11:31:12;9.55;;;8.65;;
78458;SDS011;67753;42.684;23.330;2023-06-14T11:33:16;10.80;;;9.82;;
78458;SDS011;67753;42.684;23.330;2023-06-14T11:35:20;9.48;;;8.57;;
78458;SDS011;67753;42.684;23.330;2023-06-14T11:37:23;9.07;;;8.15;;
78458;SDS011;67753;42.684;23.330;2023-06-14T11:39:28;10.45;;;9.40;;
78458;SDS011;67753;42.684;23.330;2023-06-14T11:41:35;10.02;;;9.23;;
78458;SDS011;67753;42.684;23.330;2023-06-14T11:43:39;10.13;;;9.23;;
78458;SDS011;67753;42.684;23.330;2023-06-14T11:45:42;9.73;;;8.93;;
78458;SDS011;67753;42.684;23.330;2023-06-14T11:47:44;10.55;;;9.65;;
78458;SDS011;67753;42.684;23.330;2023-06-14T11:49:46;10.40;;;9.43;;
78458;SDS011;67753;42.684;23.330;2023-06-14T11:51:49;9.48;;;8.77;;
78458;SDS011;67753;42.684;23.330;2023-06-14T11:53:50;9.38;;;8.68;;
78458;SDS011;67753;42.684;23.330;2023-06-14T11:55:53;10.77;;;9.98;;
78458;SDS011;67753;42.684;23.330;2023-06-14T11:57:54;10.05;;;9.25;;
78458;SDS011;67753;42.684;23.330;2023-06-14T11:59:56;9.57;;;8.77;;
78458;SDS011;67753;42.684;23.330;2023-06-14T12:02:00;10.45;;;8.93;;